sensor_id;sensor_type;location;lat;lon;timestamp;P1;durP1;ratioP1;P2;durP2;ratioP2
42118;SDS011;27783;42.782;23.274;2022-11-20T00:03:55;4.68;;;1.33;;
42118;SDS011;27783;42.782;23.274;2022-11-20T00:06:23;3.38;;;1.48;;
42118;SDS011;27783;42.782;23.274;2022-11-20T00:08:48;4.18;;;1.70;;
42118;SDS011;27783;42.782;23.274;2022-11-20T00:11:16;4.55;;;1.15;;
42118;SDS011;27783;42.782;23.274;2022-11-20T00:13:43;5.57;;;1.42;;
42118;SDS011;27783;42.782;23.274;2022-11-20T00:16:10;5.70;;;1.42;;
42118;SDS011;27783;42.782;23.274;2022-11-20T00:18:37;6.30;;;1.52;;
42118;SDS011;27783;42.782;23.274;2022-11-20T00:21:07;3.85;;;1.80;;
42118;SDS011;27783;42.782;23.274;2022-11-20T00:23:36;4.32;;;1.42;;
42118;SDS011;27783;42.782;23.274;2022-11-20T00:26:05;3.38;;;1.20;;
42118;SDS011;27783;42.782;23.274;2022-11-20T00:28:31;4.32;;;2.00;;
42118;SDS011;27783;42.782;23.274;2022-11-20T00:31:04;4.82;;;2.28;;
42118;SDS011;27783;42.782;23.274;2022-11-20T00:33:31;5.53;;;1.95;;
42118;SDS011;27783;42.782;23.274;2022-11-20T00:36:01;3.33;;;1.70;;
42118;SDS011;27783;42.782;23.274;2022-11-20T00:38:29;4.30;;;1.42;;
42118;SDS011;27783;42.782;23.274;2022-11-20T00:40:56;3.38;;;1.25;;
42118;SDS011;27783;42.782;23.274;2022-11-20T00:43:22;4.17;;;1.73;;
42118;SDS011;27783;42.782;23.274;2022-11-20T00:45:48;3.08;;;1.40;;
42118;SDS011;27783;42.782;23.274;2022-11-20T00:48:13;2.55;;;1.17;;
42118;SDS011;27783;42.782;23.274;2022-11-20T00:50:38;4.25;;;1.20;;
42118;SDS011;27783;42.782;23.274;2022-11-20T00:53:04;4.60;;;1.80;;
42118;SDS011;27783;42.782;23.274;2022-11-20T00:55:29;3.88;;;1.40;;
42118;SDS011;27783;42.782;23.274;2022-11-20T00:57:55;5.30;;;1.65;;
42118;SDS011;27783;42.782;23.274;2022-11-20T01:00:20;5.57;;;1.70;;
42118;SDS011;27783;42.782;23.274;2022-11-20T01:02:45;4.10;;;1.42;;
42118;SDS011;27783;42.782;23.274;2022-11-20T01:05:11;8.55;;;2.03;;
42118;SDS011;27783;42.782;23.274;2022-11-20T01:07:36;8.60;;;2.20;;
42118;SDS011;27783;42.782;23.274;2022-11-20T01:10:02;3.28;;;1.60;;
42118;SDS011;27783;42.782;23.274;2022-11-20T01:12:28;4.32;;;1.33;;
42118;SDS011;27783;42.782;23.274;2022-11-20T01:14:53;4.55;;;1.52;;
42118;SDS011;27783;42.782;23.274;2022-11-20T01:17:19;3.85;;;1.45;;
42118;SDS011;27783;42.782;23.274;2022-11-20T01:19:50;6.30;;;1.83;;
42118;SDS011;27783;42.782;23.274;2022-11-20T01:22:15;3.97;;;2.00;;
42118;SDS011;27783;42.782;23.274;2022-11-20T01:24:41;4.25;;;0.93;;
42118;SDS011;27783;42.782;23.274;2022-11-20T01:27:06;3.92;;;1.50;;
42118;SDS011;27783;42.782;23.274;2022-11-20T01:29:32;3.25;;;1.52;;
42118;SDS011;27783;42.782;23.274;2022-11-20T01:31:57;3.17;;;1.25;;
42118;SDS011;27783;42.782;23.274;2022-11-20T01:34:23;6.03;;;1.63;;
42118;SDS011;27783;42.782;23.274;2022-11-20T01:36:48;3.22;;;1.10;;
42118;SDS011;27783;42.782;23.274;2022-11-20T01:39:21;4.63;;;1.50;;
42118;SDS011;27783;42.782;23.274;2022-11-20T01:41:48;5.15;;;1.73;;
42118;SDS011;27783;42.782;23.274;2022-11-20T01:47:30;4.97;;;1.50;;
42118;SDS011;27783;42.782;23.274;2022-11-20T01:50:02;3.47;;;1.10;;
42118;SDS011;27783;42.782;23.274;2022-11-20T01:52:38;5.47;;;2.03;;
42118;SDS011;27783;42.782;23.274;2022-11-20T01:55:09;4.60;;;1.25;;
42118;SDS011;27783;42.782;23.274;2022-11-20T01:57:38;4.45;;;1.40;;
42118;SDS011;27783;42.782;23.274;2022-11-20T02:00:08;2.58;;;1.00;;
42118;SDS011;27783;42.782;23.274;2022-11-20T02:02:36;3.17;;;1.33;;
42118;SDS011;27783;42.782;23.274;2022-11-20T02:05:09;4.90;;;1.05;;
42118;SDS011;27783;42.782;23.274;2022-11-20T02:07:47;3.85;;;1.00;;
42118;SDS011;27783;42.782;23.274;2022-11-20T02:10:13;3.10;;;1.08;;
42118;SDS011;27783;42.782;23.274;2022-11-20T02:12:39;3.97;;;1.10;;
42118;SDS011;27783;42.782;23.274;2022-11-20T02:15:23;4.22;;;1.45;;
42118;SDS011;27783;42.782;23.274;2022-11-20T02:17:49;4.57;;;1.67;;
42118;SDS011;27783;42.782;23.274;2022-11-20T02:20:14;6.80;;;1.88;;
42118;SDS011;27783;42.782;23.274;2022-11-20T02:22:43;3.60;;;1.20;;
42118;SDS011;27783;42.782;23.274;2022-11-20T02:25:17;4.25;;;0.85;;
42118;SDS011;27783;42.782;23.274;2022-11-20T02:27:44;2.97;;;1.00;;
42118;SDS011;27783;42.782;23.274;2022-11-20T02:30:09;3.08;;;1.27;;
42118;SDS011;27783;42.782;23.274;2022-11-20T02:32:36;3.08;;;0.95;;
42118;SDS011;27783;42.782;23.274;2022-11-20T02:35:09;2.05;;;1.02;;
42118;SDS011;27783;42.782;23.274;2022-11-20T02:37:43;2.35;;;1.00;;
42118;SDS011;27783;42.782;23.274;2022-11-20T02:40:10;2.15;;;0.88;;
42118;SDS011;27783;42.782;23.274;2022-11-20T02:42:36;2.90;;;1.17;;
42118;SDS011;27783;42.782;23.274;2022-11-20T02:45:03;2.20;;;0.90;;
42118;SDS011;27783;42.782;23.274;2022-11-20T02:47:29;3.97;;;1.15;;
42118;SDS011;27783;42.782;23.274;2022-11-20T02:49:54;3.35;;;1.40;;
42118;SDS011;27783;42.782;23.274;2022-11-20T02:52:19;7.60;;;2.15;;
42118;SDS011;27783;42.782;23.274;2022-11-20T02:54:45;4.93;;;1.55;;
42118;SDS011;27783;42.782;23.274;2022-11-20T02:57:10;6.03;;;1.73;;
42118;SDS011;27783;42.782;23.274;2022-11-20T02:59:36;4.90;;;2.10;;
42118;SDS011;27783;42.782;23.274;2022-11-20T03:02:01;4.88;;;1.73;;
42118;SDS011;27783;42.782;23.274;2022-11-20T03:04:26;4.18;;;1.45;;
42118;SDS011;27783;42.782;23.274;2022-11-20T03:06:52;3.80;;;1.58;;
42118;SDS011;27783;42.782;23.274;2022-11-20T03:09:17;5.88;;;1.17;;
42118;SDS011;27783;42.782;23.274;2022-11-20T03:11:43;3.33;;;1.17;;
42118;SDS011;27783;42.782;23.274;2022-11-20T03:14:08;4.63;;;1.30;;
42118;SDS011;27783;42.782;23.274;2022-11-20T03:16:33;3.17;;;1.42;;
42118;SDS011;27783;42.782;23.274;2022-11-20T03:18:59;3.42;;;1.38;;
42118;SDS011;27783;42.782;23.274;2022-11-20T03:21:25;3.47;;;1.10;;
42118;SDS011;27783;42.782;23.274;2022-11-20T03:23:52;3.53;;;1.30;;
42118;SDS011;27783;42.782;23.274;2022-11-20T03:26:23;3.20;;;1.30;;
42118;SDS011;27783;42.782;23.274;2022-11-20T03:28:50;3.85;;;1.38;;
42118;SDS011;27783;42.782;23.274;2022-11-20T03:31:18;4.68;;;1.27;;
42118;SDS011;27783;42.782;23.274;2022-11-20T03:36:11;4.03;;;1.20;;
42118;SDS011;27783;42.782;23.274;2022-11-20T03:38:38;6.03;;;1.58;;
42118;SDS011;27783;42.782;23.274;2022-11-20T03:41:05;4.32;;;1.17;;
42118;SDS011;27783;42.782;23.274;2022-11-20T03:43:33;3.08;;;1.17;;
42118;SDS011;27783;42.782;23.274;2022-11-20T03:45:59;4.72;;;1.85;;
42118;SDS011;27783;42.782;23.274;2022-11-20T03:48:24;4.20;;;1.80;;
42118;SDS011;27783;42.782;23.274;2022-11-20T03:50:50;5.85;;;1.77;;
42118;SDS011;27783;42.782;23.274;2022-11-20T03:53:17;5.03;;;2.88;;
42118;SDS011;27783;42.782;23.274;2022-11-20T03:55:42;26.08;;;21.10;;
42118;SDS011;27783;42.782;23.274;2022-11-20T03:58:08;6.97;;;2.85;;
42118;SDS011;27783;42.782;23.274;2022-11-20T04:00:34;3.75;;;2.00;;
42118;SDS011;27783;42.782;23.274;2022-11-20T04:03:01;9.10;;;6.72;;
42118;SDS011;27783;42.782;23.274;2022-11-20T04:05:27;50.28;;;44.88;;
42118;SDS011;27783;42.782;23.274;2022-11-20T04:07:53;95.85;;;82.25;;
42118;SDS011;27783;42.782;23.274;2022-11-20T04:10:18;71.05;;;63.95;;
42118;SDS011;27783;42.782;23.274;2022-11-20T04:12:44;57.70;;;51.67;;
42118;SDS011;27783;42.782;23.274;2022-11-20T04:15:10;6.80;;;4.65;;
42118;SDS011;27783;42.782;23.274;2022-11-20T04:17:35;8.85;;;3.15;;
42118;SDS011;27783;42.782;23.274;2022-11-20T04:20:01;5.80;;;4.35;;
42118;SDS011;27783;42.782;23.274;2022-11-20T04:22:27;4.35;;;2.03;;
42118;SDS011;27783;42.782;23.274;2022-11-20T04:24:53;5.60;;;1.58;;
42118;SDS011;27783;42.782;23.274;2022-11-20T04:27:18;4.85;;;1.30;;
42118;SDS011;27783;42.782;23.274;2022-11-20T04:29:44;3.10;;;1.10;;
42118;SDS011;27783;42.782;23.274;2022-11-20T04:32:09;4.80;;;0.90;;
42118;SDS011;27783;42.782;23.274;2022-11-20T04:34:34;5.95;;;1.30;;
42118;SDS011;27783;42.782;23.274;2022-11-20T04:37:00;3.20;;;0.75;;
42118;SDS011;27783;42.782;23.274;2022-11-20T04:39:25;4.32;;;1.27;;
42118;SDS011;27783;42.782;23.274;2022-11-20T04:41:51;3.60;;;0.80;;
42118;SDS011;27783;42.782;23.274;2022-11-20T04:44:36;3.30;;;1.08;;
42118;SDS011;27783;42.782;23.274;2022-11-20T04:47:02;2.15;;;0.80;;
42118;SDS011;27783;42.782;23.274;2022-11-20T04:49:27;4.70;;;1.45;;
42118;SDS011;27783;42.782;23.274;2022-11-20T04:51:53;3.60;;;0.93;;
42118;SDS011;27783;42.782;23.274;2022-11-20T04:54:18;2.60;;;1.25;;
42118;SDS011;27783;42.782;23.274;2022-11-20T04:56:47;2.28;;;1.02;;
42118;SDS011;27783;42.782;23.274;2022-11-20T04:59:13;3.35;;;0.80;;
42118;SDS011;27783;42.782;23.274;2022-11-20T05:01:38;1.73;;;0.90;;
42118;SDS011;27783;42.782;23.274;2022-11-20T05:04:04;2.95;;;0.75;;
42118;SDS011;27783;42.782;23.274;2022-11-20T05:06:29;2.78;;;1.30;;
42118;SDS011;27783;42.782;23.274;2022-11-20T05:08:54;4.20;;;1.50;;
42118;SDS011;27783;42.782;23.274;2022-11-20T05:11:20;3.10;;;1.13;;
42118;SDS011;27783;42.782;23.274;2022-11-20T05:13:47;3.33;;;1.00;;
42118;SDS011;27783;42.782;23.274;2022-11-20T05:16:14;3.58;;;1.10;;
42118;SDS011;27783;42.782;23.274;2022-11-20T05:18:42;2.97;;;0.90;;
42118;SDS011;27783;42.782;23.274;2022-11-20T05:21:08;6.75;;;1.20;;
42118;SDS011;27783;42.782;23.274;2022-11-20T05:23:34;3.80;;;1.08;;
42118;SDS011;27783;42.782;23.274;2022-11-20T05:26:01;6.50;;;1.33;;
42118;SDS011;27783;42.782;23.274;2022-11-20T05:28:28;1.93;;;0.80;;
42118;SDS011;27783;42.782;23.274;2022-11-20T05:33:29;2.42;;;1.10;;
42118;SDS011;27783;42.782;23.274;2022-11-20T05:35:58;2.10;;;1.00;;
42118;SDS011;27783;42.782;23.274;2022-11-20T05:38:24;4.78;;;0.70;;
42118;SDS011;27783;42.782;23.274;2022-11-20T05:40:50;2.58;;;1.23;;
42118;SDS011;27783;42.782;23.274;2022-11-20T05:43:17;1.60;;;0.70;;
42118;SDS011;27783;42.782;23.274;2022-11-20T05:45:51;2.45;;;1.00;;
42118;SDS011;27783;42.782;23.274;2022-11-20T05:48:20;2.67;;;1.10;;
42118;SDS011;27783;42.782;23.274;2022-11-20T05:50:46;2.25;;;0.88;;
42118;SDS011;27783;42.782;23.274;2022-11-20T05:53:12;3.92;;;0.85;;
42118;SDS011;27783;42.782;23.274;2022-11-20T05:55:37;2.97;;;0.95;;
42118;SDS011;27783;42.782;23.274;2022-11-20T05:58:03;3.58;;;1.13;;
42118;SDS011;27783;42.782;23.274;2022-11-20T06:00:28;2.20;;;0.80;;
42118;SDS011;27783;42.782;23.274;2022-11-20T06:02:53;2.70;;;0.98;;
42118;SDS011;27783;42.782;23.274;2022-11-20T06:05:19;4.47;;;0.98;;
42118;SDS011;27783;42.782;23.274;2022-11-20T06:07:44;2.75;;;0.98;;
42118;SDS011;27783;42.782;23.274;2022-11-20T06:10:10;5.53;;;1.55;;
42118;SDS011;27783;42.782;23.274;2022-11-20T06:12:35;4.15;;;1.73;;
42118;SDS011;27783;42.782;23.274;2022-11-20T06:15:01;7.00;;;5.00;;
42118;SDS011;27783;42.782;23.274;2022-11-20T06:17:26;31.45;;;26.65;;
42118;SDS011;27783;42.782;23.274;2022-11-20T06:19:51;5.40;;;3.75;;
42118;SDS011;27783;42.782;23.274;2022-11-20T06:22:17;5.45;;;1.50;;
42118;SDS011;27783;42.782;23.274;2022-11-20T06:24:42;2.83;;;1.38;;
42118;SDS011;27783;42.782;23.274;2022-11-20T06:27:08;6.53;;;1.80;;
42118;SDS011;27783;42.782;23.274;2022-11-20T06:29:33;3.92;;;1.60;;
42118;SDS011;27783;42.782;23.274;2022-11-20T06:32:00;4.35;;;1.52;;
42118;SDS011;27783;42.782;23.274;2022-11-20T06:34:27;3.25;;;1.30;;
42118;SDS011;27783;42.782;23.274;2022-11-20T06:36:53;2.92;;;1.27;;
42118;SDS011;27783;42.782;23.274;2022-11-20T06:39:18;8.40;;;1.65;;
42118;SDS011;27783;42.782;23.274;2022-11-20T06:41:44;5.75;;;1.75;;
42118;SDS011;27783;42.782;23.274;2022-11-20T06:44:10;3.58;;;1.48;;
42118;SDS011;27783;42.782;23.274;2022-11-20T06:46:37;5.57;;;2.28;;
42118;SDS011;27783;42.782;23.274;2022-11-20T06:49:02;4.75;;;1.60;;
42118;SDS011;27783;42.782;23.274;2022-11-20T06:51:27;6.22;;;1.77;;
42118;SDS011;27783;42.782;23.274;2022-11-20T06:53:53;3.42;;;1.75;;
42118;SDS011;27783;42.782;23.274;2022-11-20T06:56:18;3.85;;;2.30;;
42118;SDS011;27783;42.782;23.274;2022-11-20T06:58:44;6.93;;;3.78;;
42118;SDS011;27783;42.782;23.274;2022-11-20T07:01:10;5.50;;;3.75;;
42118;SDS011;27783;42.782;23.274;2022-11-20T07:03:38;5.43;;;2.00;;
42118;SDS011;27783;42.782;23.274;2022-11-20T07:06:04;4.53;;;1.92;;
42118;SDS011;27783;42.782;23.274;2022-11-20T07:08:31;5.30;;;1.85;;
42118;SDS011;27783;42.782;23.274;2022-11-20T07:10:58;5.80;;;2.78;;
42118;SDS011;27783;42.782;23.274;2022-11-20T07:13:26;5.07;;;2.03;;
42118;SDS011;27783;42.782;23.274;2022-11-20T07:15:54;6.85;;;2.10;;
42118;SDS011;27783;42.782;23.274;2022-11-20T07:18:20;4.32;;;2.08;;
42118;SDS011;27783;42.782;23.274;2022-11-20T07:20:46;4.35;;;2.10;;
42118;SDS011;27783;42.782;23.274;2022-11-20T07:23:12;4.25;;;1.40;;
42118;SDS011;27783;42.782;23.274;2022-11-20T07:25:38;2.85;;;1.10;;
42118;SDS011;27783;42.782;23.274;2022-11-20T07:28:07;6.80;;;2.25;;
42118;SDS011;27783;42.782;23.274;2022-11-20T07:30:34;5.88;;;2.67;;
42118;SDS011;27783;42.782;23.274;2022-11-20T07:33:00;3.75;;;2.10;;
42118;SDS011;27783;42.782;23.274;2022-11-20T07:35:26;7.65;;;5.15;;
42118;SDS011;27783;42.782;23.274;2022-11-20T07:37:51;5.95;;;3.60;;
42118;SDS011;27783;42.782;23.274;2022-11-20T07:40:18;8.40;;;5.40;;
42118;SDS011;27783;42.782;23.274;2022-11-20T07:42:48;9.45;;;6.57;;
42118;SDS011;27783;42.782;23.274;2022-11-20T07:45:16;9.27;;;6.78;;
42118;SDS011;27783;42.782;23.274;2022-11-20T07:47:42;4.22;;;1.70;;
42118;SDS011;27783;42.782;23.274;2022-11-20T07:50:09;4.95;;;1.85;;
42118;SDS011;27783;42.782;23.274;2022-11-20T07:52:36;3.72;;;1.73;;
42118;SDS011;27783;42.782;23.274;2022-11-20T07:55:02;5.28;;;1.73;;
42118;SDS011;27783;42.782;23.274;2022-11-20T07:57:28;4.80;;;1.92;;
42118;SDS011;27783;42.782;23.274;2022-11-20T07:59:54;3.60;;;1.90;;
42118;SDS011;27783;42.782;23.274;2022-11-20T08:02:19;8.55;;;5.05;;
42118;SDS011;27783;42.782;23.274;2022-11-20T08:04:44;7.97;;;5.07;;
42118;SDS011;27783;42.782;23.274;2022-11-20T08:07:11;13.10;;;8.40;;
42118;SDS011;27783;42.782;23.274;2022-11-20T08:09:37;16.90;;;12.98;;
42118;SDS011;27783;42.782;23.274;2022-11-20T08:12:03;7.82;;;5.82;;
42118;SDS011;27783;42.782;23.274;2022-11-20T08:14:48;8.18;;;4.22;;
42118;SDS011;27783;42.782;23.274;2022-11-20T08:17:14;6.78;;;3.13;;
42118;SDS011;27783;42.782;23.274;2022-11-20T08:19:41;7.78;;;3.10;;
42118;SDS011;27783;42.782;23.274;2022-11-20T08:22:06;6.30;;;2.55;;
42118;SDS011;27783;42.782;23.274;2022-11-20T08:24:32;5.47;;;2.63;;
42118;SDS011;27783;42.782;23.274;2022-11-20T08:26:58;6.00;;;2.05;;
42118;SDS011;27783;42.782;23.274;2022-11-20T08:29:26;5.68;;;2.53;;
42118;SDS011;27783;42.782;23.274;2022-11-20T08:31:53;6.18;;;2.55;;
42118;SDS011;27783;42.782;23.274;2022-11-20T08:34:18;9.80;;;2.40;;
42118;SDS011;27783;42.782;23.274;2022-11-20T08:36:46;3.85;;;1.70;;
42118;SDS011;27783;42.782;23.274;2022-11-20T08:39:13;9.55;;;3.50;;
42118;SDS011;27783;42.782;23.274;2022-11-20T08:41:39;9.68;;;2.50;;
42118;SDS011;27783;42.782;23.274;2022-11-20T08:44:06;5.68;;;2.20;;
42118;SDS011;27783;42.782;23.274;2022-11-20T08:49:10;6.43;;;2.00;;
42118;SDS011;27783;42.782;23.274;2022-11-20T08:51:36;7.53;;;2.30;;
42118;SDS011;27783;42.782;23.274;2022-11-20T08:54:04;4.57;;;1.65;;
42118;SDS011;27783;42.782;23.274;2022-11-20T08:56:30;6.07;;;2.05;;
42118;SDS011;27783;42.782;23.274;2022-11-20T08:58:55;6.80;;;2.85;;
42118;SDS011;27783;42.782;23.274;2022-11-20T09:01:22;8.90;;;2.38;;
42118;SDS011;27783;42.782;23.274;2022-11-20T09:03:49;9.18;;;3.03;;
42118;SDS011;27783;42.782;23.274;2022-11-20T09:06:15;9.18;;;3.85;;
42118;SDS011;27783;42.782;23.274;2022-11-20T09:08:42;11.23;;;6.25;;
42118;SDS011;27783;42.782;23.274;2022-11-20T09:11:08;7.97;;;7.07;;
42118;SDS011;27783;42.782;23.274;2022-11-20T09:13:35;8.45;;;6.47;;
42118;SDS011;27783;42.782;23.274;2022-11-20T09:16:06;8.35;;;5.15;;
42118;SDS011;27783;42.782;23.274;2022-11-20T09:18:37;8.57;;;5.40;;
42118;SDS011;27783;42.782;23.274;2022-11-20T09:21:04;6.70;;;4.03;;
42118;SDS011;27783;42.782;23.274;2022-11-20T09:23:36;5.25;;;4.07;;
42118;SDS011;27783;42.782;23.274;2022-11-20T09:26:03;7.57;;;5.50;;
42118;SDS011;27783;42.782;23.274;2022-11-20T09:28:33;7.57;;;5.30;;
42118;SDS011;27783;42.782;23.274;2022-11-20T09:30:59;7.07;;;4.13;;
42118;SDS011;27783;42.782;23.274;2022-11-20T09:33:24;5.78;;;3.65;;
42118;SDS011;27783;42.782;23.274;2022-11-20T09:35:50;6.30;;;3.40;;
42118;SDS011;27783;42.782;23.274;2022-11-20T09:38:16;7.40;;;3.08;;
42118;SDS011;27783;42.782;23.274;2022-11-20T09:40:57;4.50;;;3.03;;
42118;SDS011;27783;42.782;23.274;2022-11-20T09:51:51;8.55;;;5.25;;
42118;SDS011;27783;42.782;23.274;2022-11-20T09:54:34;19.40;;;10.10;;
42118;SDS011;27783;42.782;23.274;2022-11-20T09:57:03;26.23;;;20.45;;
42118;SDS011;27783;42.782;23.274;2022-11-20T10:02:36;34.75;;;23.52;;
42118;SDS011;27783;42.782;23.274;2022-11-20T10:05:08;26.38;;;21.92;;
42118;SDS011;27783;42.782;23.274;2022-11-20T10:07:55;29.67;;;24.35;;
42118;SDS011;27783;42.782;23.274;2022-11-20T10:10:43;19.58;;;17.58;;
42118;SDS011;27783;42.782;23.274;2022-11-20T10:15:44;19.98;;;12.65;;
42118;SDS011;27783;42.782;23.274;2022-11-20T10:29:15;6.80;;;2.55;;
42118;SDS011;27783;42.782;23.274;2022-11-20T10:31:54;6.40;;;2.28;;
42118;SDS011;27783;42.782;23.274;2022-11-20T10:34:31;6.90;;;2.58;;
42118;SDS011;27783;42.782;23.274;2022-11-20T10:37:21;10.00;;;3.40;;
42118;SDS011;27783;42.782;23.274;2022-11-20T10:42:53;8.82;;;2.10;;
42118;SDS011;27783;42.782;23.274;2022-11-20T10:47:49;11.82;;;3.42;;
42118;SDS011;27783;42.782;23.274;2022-11-20T10:50:18;9.02;;;3.35;;
42118;SDS011;27783;42.782;23.274;2022-11-20T10:55:33;11.18;;;4.18;;
42118;SDS011;27783;42.782;23.274;2022-11-20T10:58:07;8.18;;;3.90;;
42118;SDS011;27783;42.782;23.274;2022-11-20T11:00:38;13.38;;;4.40;;
42118;SDS011;27783;42.782;23.274;2022-11-20T11:03:07;5.03;;;2.10;;
42118;SDS011;27783;42.782;23.274;2022-11-20T11:05:54;4.72;;;1.25;;
42118;SDS011;27783;42.782;23.274;2022-11-20T11:08:34;7.78;;;1.17;;
42118;SDS011;27783;42.782;23.274;2022-11-20T11:11:07;4.93;;;0.95;;
42118;SDS011;27783;42.782;23.274;2022-11-20T11:13:35;4.43;;;1.02;;
42118;SDS011;27783;42.782;23.274;2022-11-20T11:16:01;3.67;;;1.02;;
42118;SDS011;27783;42.782;23.274;2022-11-20T11:18:29;3.22;;;0.93;;
42118;SDS011;27783;42.782;23.274;2022-11-20T11:21:02;3.63;;;1.23;;
42118;SDS011;27783;42.782;23.274;2022-11-20T11:23:36;3.10;;;1.02;;
42118;SDS011;27783;42.782;23.274;2022-11-20T11:26:05;4.68;;;1.00;;
42118;SDS011;27783;42.782;23.274;2022-11-20T11:28:32;5.20;;;1.40;;
42118;SDS011;27783;42.782;23.274;2022-11-20T11:30:58;3.22;;;1.13;;
42118;SDS011;27783;42.782;23.274;2022-11-20T11:33:25;3.90;;;1.05;;
42118;SDS011;27783;42.782;23.274;2022-11-20T11:35:53;3.08;;;0.98;;
42118;SDS011;27783;42.782;23.274;2022-11-20T11:38:36;3.17;;;1.05;;
42118;SDS011;27783;42.782;23.274;2022-11-20T11:41:04;3.55;;;1.10;;
42118;SDS011;27783;42.782;23.274;2022-11-20T11:43:32;3.30;;;1.00;;
42118;SDS011;27783;42.782;23.274;2022-11-20T11:51:39;2.88;;;0.88;;
42118;SDS011;27783;42.782;23.274;2022-11-20T11:56:46;2.17;;;0.80;;
42118;SDS011;27783;42.782;23.274;2022-11-20T11:59:14;4.10;;;0.98;;
42118;SDS011;27783;42.782;23.274;2022-11-20T12:01:55;1.67;;;0.60;;
42118;SDS011;27783;42.782;23.274;2022-11-20T12:07:38;3.72;;;1.05;;
42118;SDS011;27783;42.782;23.274;2022-11-20T12:13:10;3.58;;;1.05;;
42118;SDS011;27783;42.782;23.274;2022-11-20T12:15:58;4.68;;;0.93;;
42118;SDS011;27783;42.782;23.274;2022-11-20T12:18:24;4.75;;;1.08;;
42118;SDS011;27783;42.782;23.274;2022-11-20T12:37:48;5.93;;;2.83;;
42118;SDS011;27783;42.782;23.274;2022-11-20T12:43:27;9.05;;;8.32;;
42118;SDS011;27783;42.782;23.274;2022-11-20T12:54:30;10.25;;;9.25;;
42118;SDS011;27783;42.782;23.274;2022-11-20T12:57:28;25.48;;;22.77;;
42118;SDS011;27783;42.782;23.274;2022-11-20T13:08:27;9.52;;;7.43;;
42118;SDS011;27783;42.782;23.274;2022-11-20T13:13:30;8.35;;;6.53;;
42118;SDS011;27783;42.782;23.274;2022-11-20T13:16:16;9.25;;;7.53;;
42118;SDS011;27783;42.782;23.274;2022-11-20T13:18:48;58.40;;;51.08;;
42118;SDS011;27783;42.782;23.274;2022-11-20T13:21:19;14.80;;;12.63;;
42118;SDS011;27783;42.782;23.274;2022-11-20T13:23:48;10.27;;;7.88;;
42118;SDS011;27783;42.782;23.274;2022-11-20T13:26:19;4.38;;;3.85;;
42118;SDS011;27783;42.782;23.274;2022-11-20T13:28:47;8.88;;;3.60;;
42118;SDS011;27783;42.782;23.274;2022-11-20T13:31:33;6.70;;;5.55;;
42118;SDS011;27783;42.782;23.274;2022-11-20T13:34:02;8.90;;;5.35;;
42118;SDS011;27783;42.782;23.274;2022-11-20T13:36:30;6.40;;;3.90;;
42118;SDS011;27783;42.782;23.274;2022-11-20T13:38:57;10.50;;;8.07;;
42118;SDS011;27783;42.782;23.274;2022-11-20T13:41:40;7.50;;;6.80;;
42118;SDS011;27783;42.782;23.274;2022-11-20T13:46:40;11.13;;;9.00;;
42118;SDS011;27783;42.782;23.274;2022-11-20T13:49:09;12.02;;;10.88;;
42118;SDS011;27783;42.782;23.274;2022-11-20T13:51:48;6.45;;;4.18;;
42118;SDS011;27783;42.782;23.274;2022-11-20T14:02:13;9.40;;;7.78;;
42118;SDS011;27783;42.782;23.274;2022-11-20T14:04:42;13.98;;;12.30;;
42118;SDS011;27783;42.782;23.274;2022-11-20T14:07:10;9.20;;;8.15;;
42118;SDS011;27783;42.782;23.274;2022-11-20T14:09:37;20.92;;;14.02;;
42118;SDS011;27783;42.782;23.274;2022-11-20T14:12:03;16.02;;;12.27;;
42118;SDS011;27783;42.782;23.274;2022-11-20T14:14:29;6.07;;;5.47;;
42118;SDS011;27783;42.782;23.274;2022-11-20T14:17:05;15.02;;;8.65;;
42118;SDS011;27783;42.782;23.274;2022-11-20T14:19:31;17.17;;;14.82;;
42118;SDS011;27783;42.782;23.274;2022-11-20T14:25:00;13.68;;;9.80;;
42118;SDS011;27783;42.782;23.274;2022-11-20T14:27:32;6.03;;;5.28;;
42118;SDS011;27783;42.782;23.274;2022-11-20T14:30:18;4.18;;;2.42;;
42118;SDS011;27783;42.782;23.274;2022-11-20T14:32:46;4.50;;;2.30;;
42118;SDS011;27783;42.782;23.274;2022-11-20T14:35:14;3.75;;;1.52;;
42118;SDS011;27783;42.782;23.274;2022-11-20T14:37:56;6.80;;;2.78;;
42118;SDS011;27783;42.782;23.274;2022-11-20T14:42:48;3.55;;;2.28;;
42118;SDS011;27783;42.782;23.274;2022-11-20T14:45:14;3.30;;;1.88;;
42118;SDS011;27783;42.782;23.274;2022-11-20T14:47:42;4.93;;;3.15;;
42118;SDS011;27783;42.782;23.274;2022-11-20T14:50:22;3.45;;;3.13;;
42118;SDS011;27783;42.782;23.274;2022-11-20T14:52:50;3.50;;;2.75;;
42118;SDS011;27783;42.782;23.274;2022-11-20T14:58:22;7.97;;;5.85;;
42118;SDS011;27783;42.782;23.274;2022-11-20T15:01:02;12.75;;;11.55;;
42118;SDS011;27783;42.782;23.274;2022-11-20T15:03:33;13.63;;;12.20;;
42118;SDS011;27783;42.782;23.274;2022-11-20T15:06:03;9.27;;;8.35;;
42118;SDS011;27783;42.782;23.274;2022-11-20T15:08:30;7.38;;;5.03;;
42118;SDS011;27783;42.782;23.274;2022-11-20T15:10:56;16.52;;;15.02;;
42118;SDS011;27783;42.782;23.274;2022-11-20T15:13:26;10.00;;;9.07;;
42118;SDS011;27783;42.782;23.274;2022-11-20T15:15:57;7.63;;;6.93;;
42118;SDS011;27783;42.782;23.274;2022-11-20T15:18:29;23.80;;;19.25;;
42118;SDS011;27783;42.782;23.274;2022-11-20T15:20:58;67.47;;;58.55;;
42118;SDS011;27783;42.782;23.274;2022-11-20T15:23:28;71.40;;;55.97;;
42118;SDS011;27783;42.782;23.274;2022-11-20T15:25:54;23.55;;;21.00;;
42118;SDS011;27783;42.782;23.274;2022-11-20T15:28:30;11.18;;;10.05;;
42118;SDS011;27783;42.782;23.274;2022-11-20T15:30:59;2.55;;;1.15;;
42118;SDS011;27783;42.782;23.274;2022-11-20T15:33:25;2.78;;;1.95;;
42118;SDS011;27783;42.782;23.274;2022-11-20T15:35:50;1.58;;;0.90;;
42118;SDS011;27783;42.782;23.274;2022-11-20T15:38:16;1.52;;;0.90;;
42118;SDS011;27783;42.782;23.274;2022-11-20T15:40:42;6.47;;;4.00;;
42118;SDS011;27783;42.782;23.274;2022-11-20T15:43:07;8.23;;;4.18;;
42118;SDS011;27783;42.782;23.274;2022-11-20T15:45:41;16.73;;;14.10;;
42118;SDS011;27783;42.782;23.274;2022-11-20T15:48:11;8.30;;;7.38;;
42118;SDS011;27783;42.782;23.274;2022-11-20T15:50:58;6.53;;;4.80;;
42118;SDS011;27783;42.782;23.274;2022-11-20T15:53:34;4.22;;;3.38;;
42118;SDS011;27783;42.782;23.274;2022-11-20T15:56:00;15.75;;;12.73;;
42118;SDS011;27783;42.782;23.274;2022-11-20T15:58:26;9.90;;;7.55;;
42118;SDS011;27783;42.782;23.274;2022-11-20T16:00:55;15.27;;;12.02;;
42118;SDS011;27783;42.782;23.274;2022-11-20T16:03:21;11.02;;;8.63;;
42118;SDS011;27783;42.782;23.274;2022-11-20T16:05:48;6.72;;;5.50;;
42118;SDS011;27783;42.782;23.274;2022-11-20T16:08:14;9.70;;;8.70;;
42118;SDS011;27783;42.782;23.274;2022-11-20T16:10:40;28.90;;;25.73;;
42118;SDS011;27783;42.782;23.274;2022-11-20T16:13:16;22.40;;;19.52;;
42118;SDS011;27783;42.782;23.274;2022-11-20T16:16:02;31.02;;;25.30;;
42118;SDS011;27783;42.782;23.274;2022-11-20T16:18:31;122.10;;;96.78;;
42118;SDS011;27783;42.782;23.274;2022-11-20T16:20:57;133.25;;;86.07;;
42118;SDS011;27783;42.782;23.274;2022-11-20T16:23:22;53.10;;;39.72;;
42118;SDS011;27783;42.782;23.274;2022-11-20T16:25:48;55.25;;;40.53;;
42118;SDS011;27783;42.782;23.274;2022-11-20T16:28:18;39.33;;;31.15;;
42118;SDS011;27783;42.782;23.274;2022-11-20T16:30:44;40.78;;;33.25;;
42118;SDS011;27783;42.782;23.274;2022-11-20T16:33:11;29.23;;;24.02;;
42118;SDS011;27783;42.782;23.274;2022-11-20T16:35:42;13.13;;;11.93;;
42118;SDS011;27783;42.782;23.274;2022-11-20T16:38:08;6.75;;;3.88;;